Terminal Aerodrome Forecast
Issued by NWS

Home | Current Version | Previous Version | Graphics & Text | Print | Product List | Glossary On
Versions: 1 2 3 4 5 6 7 8 9 10 11 12 13 14 15 16 17 18 19 20 21 22 23
000
FTUS43 KICT 231131
TAFCNU
TAF
KCNU 231131Z 2312/2412 34004KT P6SM SCT005 BKN015
     FM231600 06006KT P6SM BKN015
     FM232200 06007KT P6SM VCSH BKN015
     FM240200 05007KT 4SM -DZ VCSH SCT004 OVC007=

USA.gov is the U.S. government's official web portal to all federal, state and local government web resources and services.